Time;durP1;ratioP1;P1;durP2;ratioP2;P2;SDS_P1;SDS_P2;PMS_P1;PMS_P2;Temp;Humidity;BMP_temperature;BMP_pressure;BME280_temperature;BME280_humidity;BME280_pressure;Samples;Min_cycle;Max_cycle;Signal;HPM_P1;HPM_P2
2023/07/23 00:01:23;;;;;;;13.53;8.10;;;;;;;30.76;55.37;99171.34;5071734;28;20200;-70
2023/07/23 00:03:50;;;;;;;18.43;8.03;;;;;;;30.81;55.20;99171.94;5071708;28;20196;-70
2023/07/23 00:06:18;;;;;;;19.97;8.37;;;;;;;30.81;55.51;99165.63;5071965;28;20253;-70
2023/07/23 00:08:45;;;;;;;17.20;7.93;;;;;;;30.81;55.72;99166.44;5071608;28;20663;-70
2023/07/23 00:11:11;;;;;;;17.80;7.87;;;;;;;30.81;55.66;99179.34;5071710;28;20254;-70
2023/07/23 00:13:38;;;;;;;18.60;8.27;;;;;;;30.80;55.80;99185.97;5072034;28;20191;-70
2023/07/23 00:16:05;;;;;;;16.50;9.50;;;;;;;30.69;55.04;99187.53;5073045;28;20191;-70
2023/07/23 00:18:32;;;;;;;27.97;10.50;;;;;;;30.51;55.02;99186.03;5075697;28;20196;-70
2023/07/23 00:20:58;;;;;;;24.07;9.47;;;;;;;30.31;56.14;99195.84;5075592;28;20572;-70
2023/07/23 00:23:26;;;;;;;20.27;8.77;;;;;;;30.08;56.71;99197.22;5075809;28;20245;-70
2023/07/23 00:25:54;;;;;;;23.47;9.10;;;;;;;30.04;57.07;99198.25;5075390;28;20200;-70
2023/07/23 00:28:20;;;;;;;20.37;8.03;;;;;;;29.95;56.40;99190.06;5075822;28;20210;-70
2023/07/23 00:30:47;;;;;;;19.37;8.00;;;;;;;29.98;56.33;99199.53;5075724;28;20253;-70
2023/07/23 00:33:14;;;;;;;26.03;8.13;;;;;;;29.98;55.92;99197.63;5075725;28;20245;-70
2023/07/23 00:35:40;;;;;;;20.97;8.60;;;;;;;29.93;55.84;99194.25;5075619;28;20340;-70
2023/07/23 00:38:07;;;;;;;19.37;7.70;;;;;;;29.84;55.77;99199.75;5075621;28;20188;-70
2023/07/23 00:40:35;;;;;;;16.53;7.93;;;;;;;29.79;56.21;99202.69;5075552;28;20274;-70
2023/07/23 00:43:02;;;;;;;13.80;7.93;;;;;;;29.78;55.82;99208.50;5075519;28;20245;-70
2023/07/23 00:45:29;;;;;;;12.50;6.77;;;;;;;29.74;55.98;99208.34;5075045;28;20199;-70
2023/07/23 00:47:55;;;;;;;15.87;7.10;;;;;;;29.78;56.03;99209.31;5075472;28;20253;-70
2023/07/23 00:50:22;;;;;;;17.00;7.93;;;;;;;29.79;55.63;99213.66;5075037;28;20249;-70
2023/07/23 00:52:49;;;;;;;17.50;7.73;;;;;;;29.77;55.63;99215.91;5075534;28;20188;-70
2023/07/23 00:55:16;;;;;;;17.53;7.60;;;;;;;29.79;56.01;99219.13;5075137;28;20220;-70
2023/07/23 00:57:45;;;;;;;20.50;7.33;;;;;;;29.82;55.50;99223.94;5075306;28;20192;-70
2023/07/23 01:00:12;;;;;;;15.13;7.57;;;;;;;29.84;55.56;99226.38;5075137;28;20242;-70
2023/07/23 01:02:39;;;;;;;17.03;8.43;;;;;;;29.78;55.88;99233.94;5075204;28;20294;-70
2023/07/23 01:05:07;;;;;;;18.57;8.30;;;;;;;29.71;55.51;99241.88;5074999;28;20199;-70
2023/07/23 01:07:35;;;;;;;19.60;7.47;;;;;;;29.71;56.01;99241.88;5057401;28;20200;-70
2023/07/23 01:10:03;;;;;;;15.90;7.30;;;;;;;29.71;55.54;99247.34;5054653;28;20684;-70
2023/07/23 01:12:31;;;;;;;20.50;8.17;;;;;;;29.78;56.40;99247.66;5054715;28;20197;-70
2023/07/23 01:14:59;;;;;;;14.60;7.10;;;;;;;29.80;55.98;99239.91;5054780;28;20223;-70
2023/07/23 01:17:26;;;;;;;21.87;7.67;;;;;;;29.79;56.18;99238.28;5054862;28;20193;-70
2023/07/23 01:20:04;;;;;;;15.53;7.30;;;;;;;29.79;56.50;99232.81;5054487;28;20224;-71
2023/07/23 01:22:33;;;;;;;14.83;8.27;;;;;;;29.77;57.19;99229.63;5054473;28;20194;-72
2023/07/23 01:25:00;;;;;;;17.30;7.90;;;;;;;29.78;57.91;99241.34;5054721;28;20283;-70
2023/07/23 01:27:27;;;;;;;15.30;7.37;;;;;;;29.70;58.06;99240.25;5053759;28;20193;-70
2023/07/23 01:29:53;;;;;;;17.10;7.63;;;;;;;29.67;58.21;99243.66;5054203;28;20196;-70
2023/07/23 01:32:20;;;;;;;16.40;7.17;;;;;;;29.65;58.74;99243.19;5054625;28;20242;-70
2023/07/23 01:34:47;;;;;;;13.83;8.00;;;;;;;29.65;59.18;99251.41;5054411;28;20236;-70
2023/07/23 01:37:14;;;;;;;19.07;7.80;;;;;;;29.67;59.01;99262.03;5054570;28;20217;-70
2023/07/23 01:39:43;;;;;;;12.60;7.10;;;;;;;29.65;58.81;99265.09;5054089;28;20197;-70
2023/07/23 01:42:11;;;;;;;23.27;7.97;;;;;;;29.66;58.90;99261.22;5054480;28;20251;-70
2023/07/23 01:44:38;;;;;;;19.67;7.40;;;;;;;29.68;59.41;99274.59;5054344;28;20255;-70
2023/07/23 01:47:05;;;;;;;22.30;7.70;;;;;;;29.65;59.41;99272.50;5053980;28;20662;-71
2023/07/23 01:49:32;;;;;;;20.73;7.93;;;;;;;29.57;59.63;99274.13;5054646;28;20242;-70
2023/07/23 01:51:58;;;;;;;15.00;7.23;;;;;;;29.52;59.60;99268.75;5054171;28;20271;-70
2023/07/23 01:54:25;;;;;;;19.97;8.53;;;;;;;29.51;60.58;99269.13;5054142;28;20228;-70
2023/07/23 01:56:54;;;;;;;22.00;8.40;;;;;;;29.52;60.58;99266.03;5054173;28;20279;-70
2023/07/23 01:59:20;;;;;;;15.10;7.93;;;;;;;29.48;61.06;99269.75;5054078;28;20198;-70
2023/07/23 02:01:47;;;;;;;14.97;7.83;;;;;;;29.43;60.81;99270.72;5053979;28;20243;-70
2023/07/23 02:04:14;;;;;;;13.07;7.27;;;;;;;29.33;60.37;99268.34;5054022;28;20280;-70
2023/07/23 02:06:40;;;;;;;14.43;7.47;;;;;;;29.33;61.11;99268.34;5063824;28;20188;-70
2023/07/23 02:09:07;;;;;;;20.37;8.03;;;;;;;29.36;60.71;99270.44;5073595;28;20542;-70
2023/07/23 02:11:34;;;;;;;18.60;8.07;;;;;;;29.38;60.99;99270.91;5073721;28;20192;-70
2023/07/23 02:14:02;;;;;;;18.27;7.50;;;;;;;29.37;61.84;99268.47;5073864;28;20196;-70
2023/07/23 02:16:29;;;;;;;13.73;7.47;;;;;;;29.33;61.55;99274.59;5073314;28;20310;-70
2023/07/23 02:18:56;;;;;;;15.30;6.90;;;;;;;29.25;60.30;99271.88;5073850;28;20269;-70
2023/07/23 02:21:23;;;;;;;15.23;8.27;;;;;;;29.21;60.93;99262.72;5073588;28;20196;-70
2023/07/23 02:23:49;;;;;;;15.07;7.50;;;;;;;29.19;61.63;99264.94;5073672;28;20188;-70
2023/07/23 02:26:16;;;;;;;22.23;7.73;;;;;;;29.18;61.31;99260.63;5073185;28;20218;-70
2023/07/23 02:28:43;;;;;;;18.70;7.67;;;;;;;29.05;60.65;99259.66;5073262;28;20192;-70
2023/07/23 02:31:11;;;;;;;20.43;8.13;;;;;;;29.01;59.71;99260.63;5073054;28;20234;-70
2023/07/23 02:33:38;;;;;;;16.27;7.50;;;;;;;28.72;60.17;99271.34;5073046;28;20221;-70
2023/07/23 02:36:05;;;;;;;14.13;6.83;;;;;;;28.59;60.91;99272.31;5073575;28;20236;-70
2023/07/23 02:38:32;;;;;;;21.53;7.03;;;;;;;28.66;60.56;99275.34;5073169;28;20188;-70
2023/07/23 02:40:59;;;;;;;21.17;7.33;;;;;;;28.52;60.59;99285.63;5073274;28;20252;-70
2023/07/23 02:43:26;;;;;;;20.10;8.23;;;;;;;28.57;61.15;99288.19;5072945;28;20188;-70
2023/07/23 02:45:54;;;;;;;17.77;7.87;;;;;;;28.59;61.58;99302.38;5072810;28;20192;-70
2023/07/23 02:48:22;;;;;;;19.80;7.47;;;;;;;28.56;61.70;99297.53;5073189;28;20238;-70
2023/07/23 02:50:49;;;;;;;26.33;8.27;;;;;;;28.54;61.42;99306.06;5073049;28;20192;-70
2023/07/23 02:53:15;;;;;;;17.73;7.47;;;;;;;28.58;61.45;99311.72;5072757;28;20196;-70
2023/07/23 02:55:42;;;;;;;16.87;7.47;;;;;;;28.63;61.60;99315.06;5072597;28;20254;-70
2023/07/23 02:58:09;;;;;;;25.13;8.13;;;;;;;28.67;61.34;99316.03;5073016;28;20188;-70
2023/07/23 03:00:39;;;;;;;14.63;7.83;;;;;;;28.70;61.24;99325.53;5072776;28;20249;-70
2023/07/23 03:03:06;;;;;;;18.77;8.27;;;;;;;28.67;61.54;99323.47;5072914;28;20192;-70
2023/07/23 03:05:34;;;;;;;13.87;6.73;;;;;;;28.63;60.66;99317.03;5072357;28;20671;-71
2023/07/23 03:08:02;;;;;;;22.97;7.50;;;;;;;28.55;60.74;99328.72;5072815;28;20253;-70
2023/07/23 03:10:29;;;;;;;21.80;7.50;;;;;;;28.40;60.83;99326.38;5072415;28;20249;-70
2023/07/23 03:12:56;;;;;;;12.20;6.87;;;;;;;28.37;60.68;99322.38;5072598;28;20192;-70
2023/07/23 03:15:22;;;;;;;17.67;7.27;;;;;;;28.42;60.53;99329.66;5072502;28;20219;-70
2023/07/23 03:17:50;;;;;;;15.90;7.70;;;;;;;28.52;60.40;99346.56;5072550;28;20195;-70
2023/07/23 03:20:17;;;;;;;15.80;7.43;;;;;;;28.60;60.04;99343.06;5072551;28;20196;-70
2023/07/23 03:22:45;;;;;;;17.43;7.07;;;;;;;28.70;59.52;99341.94;5072778;28;20192;-70
2023/07/23 03:25:12;;;;;;;13.40;6.90;;;;;;;28.75;59.84;99339.09;5072499;28;20261;-70
2023/07/23 03:27:39;;;;;;;12.20;6.83;;;;;;;28.85;59.88;99350.53;5072417;28;20594;-70
2023/07/23 03:30:07;;;;;;;17.10;7.63;;;;;;;28.87;60.19;99342.00;5072449;28;20192;-70
2023/07/23 03:32:33;;;;;;;19.77;7.97;;;;;;;28.89;59.87;99350.69;5072215;28;20196;-70
2023/07/23 03:35:00;;;;;;;20.47;7.93;;;;;;;28.92;59.50;99355.53;5072092;28;20227;-70
2023/07/23 03:37:27;;;;;;;23.87;7.60;;;;;;;28.96;59.60;99362.75;5072213;28;20196;-70
2023/07/23 03:39:55;;;;;;;12.83;7.13;;;;;;;29.06;59.96;99372.63;5072030;28;20192;-70
2023/07/23 03:42:22;;;;;;;29.50;8.17;;;;;;;29.02;59.38;99388.88;5071887;28;20192;-70
2023/07/23 03:44:48;;;;;;;28.03;8.40;;;;;;;28.95;59.36;99395.91;5072255;28;20224;-70
2023/07/23 03:47:17;;;;;;;18.03;8.23;;;;;;;28.95;59.64;99393.97;5072184;28;20192;-70
2023/07/23 03:49:46;;;;;;;23.47;7.97;;;;;;;29.10;59.29;99396.28;5071990;28;20250;-70
2023/07/23 03:52:12;;;;;;;23.43;8.47;;;;;;;29.24;58.77;99396.16;5071259;28;20623;-70
2023/07/23 03:54:39;;;;;;;27.77;8.77;;;;;;;29.38;58.19;99402.28;5071836;28;20196;-70
2023/07/23 03:57:08;;;;;;;21.20;8.63;;;;;;;29.52;58.74;99407.59;5071628;28;20265;-70
2023/07/23 03:59:37;;;;;;;20.97;8.17;;;;;;;29.69;58.28;99402.16;5071759;28;20656;-71
2023/07/23 04:02:04;;;;;;;17.20;7.63;;;;;;;29.89;57.89;99412.44;5072064;28;20245;-70
2023/07/23 04:04:31;;;;;;;16.80;7.77;;;;;;;30.04;57.50;99415.47;5071770;28;20578;-70
2023/07/23 04:06:58;;;;;;;17.80;7.80;;;;;;;30.15;56.18;99426.94;5071876;28;20245;-70
2023/07/23 04:09:25;;;;;;;21.20;8.10;;;;;;;30.34;55.30;99417.22;5072092;28;20192;-70
2023/07/23 04:11:52;;;;;;;21.37;8.47;;;;;;;30.91;54.61;99428.63;5071712;28;20226;-70
2023/07/23 04:14:20;;;;;;;14.60;7.57;;;;;;;31.59;52.27;99431.75;5071634;28;20540;-70
2023/07/23 04:16:47;;;;;;;19.20;8.70;;;;;;;32.35;50.65;99445.97;5071821;28;20227;-70
2023/07/23 04:19:14;;;;;;;16.57;8.00;;;;;;;33.07;48.00;99441.38;5071597;28;20192;-70
2023/07/23 04:21:41;;;;;;;21.77;8.60;;;;;;;33.66;46.44;99449.09;5071534;28;20664;-70
2023/07/23 04:24:08;;;;;;;17.20;7.93;;;;;;;34.03;44.29;99450.63;5071912;28;20219;-70
2023/07/23 04:26:34;;;;;;;23.37;7.73;;;;;;;34.44;39.57;99456.53;5071502;28;20196;-70
2023/07/23 04:29:01;;;;;;;15.70;6.72;;;;;;;34.78;37.61;99466.09;5071984;28;20254;-70
2023/07/23 04:31:31;;;;;;;21.00;7.15;;;;;;;35.18;37.21;99463.94;5071766;28;20197;-70
2023/07/23 04:33:58;;;;;;;15.95;6.97;;;;;;;35.58;35.09;99457.00;5071360;28;20655;-69
2023/07/23 04:36:25;;;;;;;17.98;6.32;;;;;;;35.79;34.74;99470.50;5071859;28;20696;-69
2023/07/23 04:38:51;;;;;;;29.08;7.07;;;;;;;35.75;34.53;99477.94;5071364;28;20687;-69
2023/07/23 04:41:18;;;;;;;19.48;6.95;;;;;;;35.91;34.77;99481.44;5071755;28;20192;-70
2023/07/23 04:43:45;;;;;;;19.77;6.70;;;;;;;36.02;34.57;99488.00;5071691;28;20262;-69
2023/07/23 04:46:11;;;;;;;21.40;6.93;;;;;;;36.24;34.28;99487.28;5071681;28;20200;-69
2023/07/23 04:48:39;;;;;;;19.67;7.22;;;;;;;36.10;34.39;99478.69;5071256;28;20196;-69
2023/07/23 04:51:08;;;;;;;16.17;7.40;;;;;;;36.30;33.90;99480.28;5071654;28;20387;-70
2023/07/23 04:53:35;;;;;;;20.55;7.00;;;;;;;36.48;33.73;99482.22;5071534;28;20196;-69
2023/07/23 04:56:04;;;;;;;18.77;6.75;;;;;;;36.84;33.05;99484.50;5071248;28;20277;-69
2023/07/23 04:58:32;;;;;;;15.43;6.50;;;;;;;37.01;32.92;99483.19;5071472;28;20257;-69
2023/07/23 05:01:01;;;;;;;9.43;5.85;;;;;;;37.07;33.07;99478.94;5071200;28;20196;-69
2023/07/23 05:03:28;;;;;;;16.55;6.07;;;;;;;37.52;32.38;99491.91;5074028;28;20196;-69
2023/07/23 05:06:01;;;;;;;16.58;6.32;;;;;;;37.58;31.91;99496.75;5071236;28;20613;-68
2023/07/23 05:08:28;;;;;;;21.48;6.78;;;;;;;37.32;32.74;99484.88;5054974;28;20195;-69
2023/07/23 05:10:59;;;;;;;16.95;6.38;;;;;;;37.60;31.52;99486.09;5055035;28;20197;-69
2023/07/23 05:13:25;;;;;;;13.13;5.85;;;;;;;37.64;31.87;99486.97;5054887;28;20196;-69
2023/07/23 05:15:52;;;;;;;16.33;5.75;;;;;;;37.84;31.04;99490.41;5054800;28;20325;-68
2023/07/23 05:18:19;;;;;;;18.52;5.45;;;;;;;37.61;31.42;99484.16;5054767;28;20189;-69
2023/07/23 05:20:46;;;;;;;16.90;6.22;;;;;;;37.91;31.13;99480.19;5054776;28;20193;-69
2023/07/23 05:23:14;;;;;;;13.05;5.32;;;;;;;37.93;30.78;99483.41;5054738;28;20193;-69
2023/07/23 05:25:43;;;;;;;11.73;5.57;;;;;;;38.24;30.80;99480.22;5054394;28;20254;-70
2023/07/23 05:28:09;;;;;;;22.77;6.10;;;;;;;38.56;30.19;99481.41;5054572;28;20255;-68
2023/07/23 05:30:36;;;;;;;93.05;12.68;;;;;;;38.66;30.12;99477.13;5054180;28;20227;-68
2023/07/23 05:33:03;;;;;;;12.75;6.07;;;;;;;39.02;29.88;99477.06;5054533;28;20196;-68
2023/07/23 05:35:30;;;;;;;16.85;6.00;;;;;;;39.40;29.62;99476.56;5054519;28;20232;-68
2023/07/23 05:37:56;;;;;;;11.90;5.68;;;;;;;39.69;28.68;99489.50;5054123;28;20626;-68
2023/07/23 05:40:24;;;;;;;45.45;10.50;;;;;;;39.27;29.26;99483.63;5054276;28;20192;-68
2023/07/23 05:42:55;;;;;;;19.77;6.07;;;;;;;38.65;30.28;99484.66;5053988;28;20247;-68
2023/07/23 05:45:22;;;;;;;19.52;6.03;;;;;;;38.64;30.71;99474.72;5054470;28;20243;-68
2023/07/23 05:47:49;;;;;;;18.75;5.93;;;;;;;38.42;30.76;99477.66;5053953;28;20201;-68
2023/07/23 05:50:15;;;;;;;24.17;6.57;;;;;;;37.99;31.35;99481.88;5053976;28;20660;-68
2023/07/23 05:52:42;;;;;;;15.02;5.35;;;;;;;38.12;31.82;99477.72;5054512;28;20192;-68
2023/07/23 05:55:09;;;;;;;18.20;5.60;;;;;;;38.40;30.92;99472.47;5053897;28;20250;-68
2023/07/23 05:57:37;;;;;;;21.08;5.82;;;;;;;38.30;31.25;99477.91;5054169;28;20297;-68
2023/07/23 06:00:04;;;;;;;15.95;5.65;;;;;;;38.29;31.31;99465.22;5053756;28;20611;-68
2023/07/23 06:02:31;;;;;;;16.90;5.70;;;;;;;38.32;31.57;99462.47;5053898;28;20200;-68
2023/07/23 06:04:58;;;;;;;16.60;5.88;;;;;;;38.27;31.72;99460.03;5054182;28;20254;-68
2023/07/23 06:07:24;;;;;;;13.43;5.30;;;;;;;38.21;31.90;99453.22;5069504;28;20192;-68
2023/07/23 06:09:51;;;;;;;12.05;5.65;;;;;;;38.13;32.41;99454.31;5073477;28;20736;-68
2023/07/23 06:12:18;;;;;;;13.52;5.03;;;;;;;37.80;32.64;99450.72;5073419;28;20585;-68
2023/07/23 06:14:46;;;;;;;14.65;5.25;;;;;;;37.58;33.70;99449.63;5073183;28;20254;-68
2023/07/23 06:17:13;;;;;;;7.40;5.13;;;;;;;37.57;33.33;99442.47;5073651;28;20219;-68
2023/07/23 06:19:39;;;;;;;12.70;5.55;;;;;;;37.59;33.51;99440.16;5073541;28;20196;-68
2023/07/23 06:22:06;;;;;;;16.27;5.75;;;;;;;37.87;33.17;99439.69;5073553;28;20196;-68
2023/07/23 06:24:33;;;;;;;11.00;5.60;;;;;;;37.86;32.53;99440.88;5073257;28;20663;-68
2023/07/23 06:26:59;;;;;;;27.58;5.85;;;;;;;37.59;33.41;99439.38;5073619;28;20196;-68
2023/07/23 06:29:26;;;;;;;10.50;5.95;;;;;;;38.02;32.81;99435.94;5073655;28;20200;-68
2023/07/23 06:31:54;;;;;;;8.00;5.30;;;;;;;38.02;32.11;99436.75;5073655;28;20262;-68
2023/07/23 06:34:21;;;;;;;10.20;6.15;;;;;;;37.72;33.25;99440.72;5072878;28;20224;-67
2023/07/23 06:36:48;;;;;;;15.68;6.38;;;;;;;37.87;32.79;99437.75;5073017;28;20208;-67
2023/07/23 06:39:14;;;;;;;11.77;6.05;;;;;;;38.22;32.21;99429.06;5072871;28;20618;-68
2023/07/23 06:41:41;;;;;;;15.10;5.22;;;;;;;38.66;31.71;99438.25;5073219;28;20192;-68
2023/07/23 06:44:08;;;;;;;13.60;6.25;;;;;;;39.10;30.99;99437.03;5073128;28;20196;-68
2023/07/23 06:46:35;;;;;;;10.77;5.80;;;;;;;39.28;30.61;99437.97;5072874;28;20658;-68
2023/07/23 06:49:03;;;;;;;15.80;6.20;;;;;;;39.71;30.13;99445.38;5072899;28;20237;-68
2023/07/23 06:51:29;;;;;;;15.73;5.90;;;;;;;40.15;28.52;99443.19;5073353;28;20570;-68
2023/07/23 06:53:56;;;;;;;10.38;6.53;;;;;;;40.57;27.79;99443.28;5072862;28;20188;-68
2023/07/23 06:56:23;;;;;;;19.33;6.15;;;;;;;41.08;27.51;99444.94;5072738;28;20220;-68
2023/07/23 06:58:49;;;;;;;15.32;5.50;;;;;;;41.29;26.50;99451.28;5072379;28;20195;-68
2023/07/23 07:01:16;;;;;;;11.43;5.18;;;;;;;41.02;26.27;99452.13;5072397;28;20254;-68
2023/07/23 07:03:43;;;;;;;14.57;6.47;;;;;;;40.87;26.84;99448.50;5072256;28;20188;-68
2023/07/23 07:06:11;;;;;;;14.38;5.95;;;;;;;41.03;27.39;99444.13;5066600;28;20196;-68
2023/07/23 07:08:37;;;;;;;13.27;6.10;;;;;;;41.26;26.36;99448.50;5052862;28;20192;-68
2023/07/23 07:11:09;;;;;;;9.73;5.55;;;;;;;41.12;26.79;99448.50;5052763;28;20192;-68
2023/07/23 07:13:36;;;;;;;7.68;5.88;;;;;;;41.18;26.82;99449.72;5052319;28;20656;-67
2023/07/23 07:16:03;;;;;;;11.27;5.35;;;;;;;41.08;25.49;99454.88;5052472;28;20672;-67
2023/07/23 07:18:30;;;;;;;8.43;5.38;;;;;;;41.37;25.72;99452.06;5052181;28;20243;-68
2023/07/23 07:20:58;;;;;;;10.30;5.63;;;;;;;40.92;25.03;99448.91;5051867;28;20741;-68
2023/07/23 07:23:27;;;;;;;13.68;5.60;;;;;;;40.42;25.85;99447.22;5052432;28;20199;-69
2023/07/23 07:25:55;;;;;;;8.43;5.72;;;;;;;40.53;25.53;99445.28;5051553;28;20270;-68
2023/07/23 07:28:22;;;;;;;9.48;5.80;;;;;;;41.03;25.37;99443.34;5052267;28;20196;-68
2023/07/23 07:30:48;;;;;;;6.05;5.50;;;;;;;40.86;25.34;99449.69;5052543;28;20250;-68
2023/07/23 07:33:15;;;;;;;6.47;5.68;;;;;;;40.59;24.83;99456.81;5051896;28;20252;-67
2023/07/23 07:35:43;;;;;;;10.88;5.57;;;;;;;40.14;25.15;99457.50;5052029;28;20704;-69
2023/07/23 07:38:10;;;;;;;16.20;6.65;;;;;;;40.48;25.05;99451.25;5051781;28;20654;-69
2023/07/23 07:40:40;;;;;;;11.73;5.55;;;;;;;40.94;24.62;99452.09;5051622;28;20678;-68
2023/07/23 07:43:07;;;;;;;10.65;7.15;;;;;;;40.93;24.48;99450.50;5052138;28;20266;-69
2023/07/23 07:45:34;;;;;;;16.05;7.32;;;;;;;40.40;25.12;99443.25;5051807;28;20205;-67
2023/07/23 07:48:01;;;;;;;14.15;7.15;;;;;;;40.27;24.67;99450.41;5052309;28;20201;-68
2023/07/23 07:50:27;;;;;;;14.68;6.00;;;;;;;40.32;24.46;99447.22;5051868;28;20245;-69
2023/07/23 07:52:54;;;;;;;49.35;9.27;;;;;;;40.23;24.39;99446.81;5052380;28;20246;-68
2023/07/23 07:55:21;;;;;;;9.30;6.45;;;;;;;40.32;24.61;99436.06;5052005;28;20250;-68
2023/07/23 07:57:49;;;;;;;8.15;6.93;;;;;;;40.68;24.23;99441.34;5051884;28;20220;-68
2023/07/23 08:00:17;;;;;;;8.40;5.47;;;;;;;40.87;23.11;99446.50;5051893;28;20196;-68
2023/07/23 08:02:44;;;;;;;7.53;5.85;;;;;;;40.77;22.67;99447.31;5051964;28;20188;-68
2023/07/23 08:05:12;;;;;;;10.60;7.35;;;;;;;40.27;23.44;99439.25;5051532;28;20664;-68
2023/07/23 08:07:39;;;;;;;10.85;7.00;;;;;;;40.11;23.72;99442.38;5069753;28;20200;-68
2023/07/23 08:10:08;;;;;;;23.90;12.50;;;;;;;40.20;23.00;99434.47;5071416;28;20655;-68
2023/07/23 08:12:36;;;;;;;25.92;17.40;;;;;;;40.24;22.85;99445.59;5072003;28;20191;-69
2023/07/23 08:15:06;;;;;;;23.30;13.38;;;;;;;40.57;22.22;99437.72;5072030;28;20257;-68
2023/07/23 08:17:34;;;;;;;20.60;11.68;;;;;;;39.88;22.58;99439.09;5072157;28;20212;-68
2023/07/23 08:20:03;;;;;;;31.65;13.43;;;;;;;39.54;23.09;99434.97;5072007;28;20241;-68
2023/07/23 08:22:30;;;;;;;18.48;10.55;;;;;;;39.73;22.85;99437.41;5071948;28;20195;-69
2023/07/23 08:24:57;;;;;;;10.25;6.57;;;;;;;39.41;22.99;99436.47;5071837;28;20192;-69
2023/07/23 08:27:26;;;;;;;15.52;6.30;;;;;;;39.34;23.34;99439.22;5071803;28;20622;-67
2023/07/23 08:29:53;;;;;;;14.57;8.25;;;;;;;39.74;22.78;99427.91;5071878;28;20223;-68
2023/07/23 08:32:23;;;;;;;103.75;20.55;;;;;;;39.93;21.89;99440.72;5071617;28;20195;-68
2023/07/23 08:34:50;;;;;;;18.35;9.77;;;;;;;39.11;22.57;99429.50;5071289;28;20715;-68
2023/07/23 08:37:17;;;;;;;28.92;7.50;;;;;;;39.03;22.38;99450.88;5072547;28;20220;-68
2023/07/23 08:39:44;;;;;;;51.33;8.13;;;;;;;39.13;21.67;99441.81;5075083;28;20725;-68
2023/07/23 08:42:37;;;;;;;15.10;6.00;;;;;;;39.51;21.92;99435.72;5075381;28;20188;-68
2023/07/23 08:45:36;;;;;;;151.48;14.07;;;;;;;39.30;21.41;99435.59;5075358;28;20188;-68
2023/07/23 08:48:15;;;;;;;11.95;6.10;;;;;;;39.64;21.56;99445.31;5075549;28;20191;-68
2023/07/23 08:50:44;;;;;;;10.50;5.78;;;;;;;40.01;21.78;99432.00;5074969;28;20270;-68
2023/07/23 08:53:13;;;;;;;54.17;9.07;;;;;;;40.07;21.50;99436.00;5075227;28;20253;-68
2023/07/23 08:55:42;;;;;;;17.45;6.20;;;;;;;40.18;21.50;99444.41;5074534;28;20196;-68
2023/07/23 08:58:10;;;;;;;50.97;8.70;;;;;;;40.26;21.44;99437.66;5075286;28;20634;-69
2023/07/23 09:00:38;;;;;;;16.42;6.65;;;;;;;39.84;21.36;99429.16;5074642;28;20253;-67
2023/07/23 09:03:09;;;;;;;10.65;6.18;;;;;;;40.09;21.63;99433.59;5074660;28;20548;-69
2023/07/23 09:05:36;;;;;;;8.00;5.78;;;;;;;40.50;20.50;99442.50;5074776;28;20196;-71
2023/07/23 09:08:03;;;;;;;6.13;5.50;;;;;;;40.57;20.87;99437.72;5074880;28;20207;-68
2023/07/23 09:10:30;;;;;;;6.35;5.60;;;;;;;40.79;21.11;99439.34;5074459;28;20617;-68
2023/07/23 09:12:56;;;;;;;8.02;5.90;;;;;;;40.96;20.88;99440.53;5074376;28;20728;-68
2023/07/23 09:15:23;;;;;;;6.80;6.15;;;;;;;41.20;20.88;99448.09;5074612;28;20188;-68
2023/07/23 09:17:50;;;;;;;11.73;6.10;;;;;;;41.45;20.51;99436.91;5074312;28;20289;-67
2023/07/23 09:20:19;;;;;;;8.90;5.93;;;;;;;41.73;20.39;99436.81;5074043;28;20200;-68
2023/07/23 09:22:46;;;;;;;21.95;7.53;;;;;;;41.73;20.50;99442.41;5074753;28;20192;-67
2023/07/23 09:25:13;;;;;;;122.72;13.70;;;;;;;41.78;19.45;99439.19;5074116;28;20656;-68
2023/07/23 09:27:42;;;;;;;34.42;7.65;;;;;;;41.79;18.81;99438.00;5074250;28;20204;-68
2023/07/23 09:30:17;;;;;;;10.05;6.72;;;;;;;41.65;19.36;99438.06;5074451;28;20294;-68
2023/07/23 09:32:44;;;;;;;12.13;7.38;;;;;;;41.03;20.00;99427.41;5074767;28;20188;-68
2023/07/23 09:35:10;;;;;;;10.23;6.75;;;;;;;40.94;19.23;99424.22;5074283;28;20780;-68
2023/07/23 09:37:39;;;;;;;8.63;7.53;;;;;;;40.45;19.59;99429.75;5074203;28;20219;-68
2023/07/23 09:40:06;;;;;;;17.35;8.60;;;;;;;40.69;19.73;99429.00;5073796;28;20194;-68
2023/07/23 09:42:39;;;;;;;9.70;8.60;;;;;;;40.27;19.13;99428.94;5074410;28;20221;-68
2023/07/23 09:45:07;;;;;;;11.13;8.30;;;;;;;40.58;18.82;99408.66;5073752;28;20271;-69
2023/07/23 09:47:34;;;;;;;47.08;11.18;;;;;;;40.72;18.43;99419.84;5074141;28;20708;-68
2023/07/23 09:50:01;;;;;;;16.27;9.93;;;;;;;40.98;18.48;99419.41;5072962;28;20200;-69
2023/07/23 09:52:35;;;;;;;33.05;10.43;;;;;;;40.93;18.29;99422.63;5073873;28;20192;-68
2023/07/23 09:55:05;;;;;;;13.85;8.70;;;;;;;40.97;18.39;99422.59;5074253;28;20184;-68
2023/07/23 09:57:33;;;;;;;12.75;9.40;;;;;;;40.57;17.84;99423.78;5073786;28;20775;-68
2023/07/23 10:00:02;;;;;;;22.00;10.57;;;;;;;40.80;17.58;99412.28;5073820;28;20198;-67
2023/07/23 10:02:34;;;;;;;81.70;14.65;;;;;;;40.74;17.15;99413.88;5073943;28;20350;-67
2023/07/23 10:05:04;;;;;;;14.60;9.75;;;;;;;40.80;16.84;99401.94;5073668;28;20601;-68
2023/07/23 10:07:31;;;;;;;11.93;9.85;;;;;;;40.84;17.51;99408.31;5073753;28;20227;-68
2023/07/23 10:09:59;;;;;;;19.73;9.93;;;;;;;41.08;17.13;99405.91;5073991;28;20192;-68
2023/07/23 10:12:27;;;;;;;74.60;13.13;;;;;;;41.21;16.71;99415.41;5073694;28;20253;-68
2023/07/23 10:14:54;;;;;;;18.45;9.93;;;;;;;40.76;16.61;99406.72;5073729;28;20273;-68
2023/07/23 10:17:21;;;;;;;11.80;9.93;;;;;;;40.60;17.56;99408.28;5073854;28;20230;-68
2023/07/23 10:19:49;;;;;;;13.55;9.48;;;;;;;41.07;17.47;99401.53;5073803;28;20253;-68
2023/07/23 10:22:16;;;;;;;14.95;9.80;;;;;;;41.02;17.06;99413.88;5073596;28;20617;-68
2023/07/23 10:24:43;;;;;;;48.72;12.25;;;;;;;41.01;16.98;99400.34;5073385;28;20290;-68
2023/07/23 10:27:14;;;;;;;39.38;10.10;;;;;;;41.10;17.74;99403.53;5073463;28;20229;-69
2023/07/23 10:30:02;;;;;;;14.82;8.90;;;;;;;41.15;17.83;99411.47;5073434;28;20196;-68
2023/07/23 10:32:31;;;;;;;18.77;10.48;;;;;;;41.18;17.28;99391.16;5073136;28;20200;-68
2023/07/23 10:34:58;;;;;;;25.58;11.73;;;;;;;41.15;17.42;99397.53;5072880;28;20236;-68
2023/07/23 10:37:25;;;;;;;28.98;16.90;;;;;;;40.98;17.11;99405.47;5073187;28;20227;-68
2023/07/23 10:39:55;;;;;;;18.63;12.93;;;;;;;40.55;17.62;99389.16;5073497;28;20196;-68
2023/07/23 10:42:37;;;;;;;16.52;11.85;;;;;;;40.10;17.66;99392.66;5073247;28;20183;-68
2023/07/23 10:45:28;;;;;;;18.42;10.05;;;;;;;40.05;17.79;99393.81;5072940;28;20644;-68
2023/07/23 10:47:57;;;;;;;13.57;9.75;;;;;;;40.48;17.57;99389.97;5073352;28;20200;-68
2023/07/23 10:50:25;;;;;;;12.60;10.00;;;;;;;40.68;17.60;99387.59;5072989;28;20316;-68
2023/07/23 10:52:53;;;;;;;20.52;11.02;;;;;;;40.60;17.02;99395.16;5072927;28;20257;-68
2023/07/23 10:55:45;;;;;;;18.27;11.18;;;;;;;40.82;17.23;99380.03;5072916;28;20192;-68
2023/07/23 10:58:12;;;;;;;17.88;11.10;;;;;;;41.00;17.06;99385.56;5071260;28;20785;-68
2023/07/23 11:00:44;;;;;;;19.23;11.85;;;;;;;41.00;17.38;99385.56;5072842;28;20192;-68
2023/07/23 11:03:13;;;;;;;13.00;10.80;;;;;;;40.56;17.65;99385.97;5072810;28;20190;-68
2023/07/23 11:05:42;;;;;;;16.77;11.27;;;;;;;40.72;17.49;99374.47;5071152;28;20229;-68
2023/07/23 11:08:13;;;;;;;14.13;10.50;;;;;;;40.72;17.19;99383.63;5052631;28;20349;-68
2023/07/23 11:10:55;;;;;;;14.77;9.93;;;;;;;40.92;17.20;99382.00;5053018;28;20207;-67
2023/07/23 11:13:23;;;;;;;31.80;10.95;;;;;;;41.01;16.85;99378.06;5052287;28;20196;-68
2023/07/23 11:15:52;;;;;;;11.63;10.15;;;;;;;40.90;17.36;99367.66;5052945;28;20197;-68
2023/07/23 11:18:19;;;;;;;16.75;10.77;;;;;;;40.81;17.07;99375.66;5052479;28;20290;-69
2023/07/23 11:20:47;;;;;;;10.93;9.88;;;;;;;40.46;17.03;99355.34;5052482;28;20262;-68
2023/07/23 11:23:14;;;;;;;192.07;21.00;;;;;;;40.31;17.83;99371.25;5052119;28;20188;-69
2023/07/23 11:25:41;;;;;;;18.92;10.88;;;;;;;40.46;17.73;99372.06;5052144;28;20197;-69
2023/07/23 11:28:07;;;;;;;130.80;18.42;;;;;;;40.51;17.35;99364.09;5052357;28;20193;-69